createdAt,value
2023-02-20T00:02:39.783Z,1.12
2023-02-20T00:07:41.466Z,1.28
2023-02-20T00:12:43.063Z,1.26
2023-02-20T00:17:47.527Z,1.22
2023-02-20T00:22:52.289Z,1.16
2023-02-20T00:27:53.837Z,1.13
2023-02-20T00:32:56.712Z,1.10
2023-02-20T00:37:58.321Z,1.10
2023-02-20T00:42:59.830Z,1.23
2023-02-20T00:48:01.444Z,1.37
2023-02-20T00:53:03.468Z,1.43
2023-02-20T00:58:04.936Z,1.45
2023-02-20T01:03:06.523Z,1.46
2023-02-20T01:08:08.072Z,1.47
2023-02-20T01:13:09.584Z,1.48
2023-02-20T01:18:11.310Z,1.51
2023-02-20T01:23:12.829Z,1.54
2023-02-20T01:28:14.385Z,1.56
2023-02-20T01:33:15.878Z,1.61
2023-02-20T01:38:17.581Z,1.62
2023-02-20T01:43:19.293Z,1.64
2023-02-20T01:48:24.229Z,1.65
2023-02-20T01:53:29.348Z,1.73
2023-02-20T01:58:40.238Z,1.87
2023-02-20T02:03:46.256Z,1.95
2023-02-20T02:08:48.087Z,1.95
2023-02-20T02:13:49.853Z,1.93
2023-02-20T02:19:24.540Z,1.89
2023-02-20T02:24:53.866Z,1.88
2023-02-20T02:30:15.852Z,1.83
2023-02-20T02:35:23.727Z,1.81
2023-02-20T02:40:47.405Z,1.78
2023-02-20T02:45:54.890Z,1.76
2023-02-20T02:51:03.861Z,1.76
2023-02-20T02:56:21.670Z,1.76
2023-02-20T03:01:24.084Z,1.77
2023-02-20T03:06:34.784Z,1.83
2023-02-20T03:11:38.918Z,1.96
2023-02-20T03:17:05.814Z,2.00
2023-02-20T03:22:16.642Z,2.01
2023-02-20T03:27:18.506Z,1.99
2023-02-20T03:32:41.214Z,1.93
2023-02-20T03:38:04.804Z,1.91
2023-02-20T03:43:28.322Z,1.89
2023-02-20T03:48:36.148Z,1.88
2023-02-20T03:53:39.955Z,1.87
2023-02-20T03:58:47.922Z,1.85
2023-02-20T04:03:52.489Z,1.83
2023-02-20T04:09:06.354Z,1.81
2023-02-20T04:14:09.875Z,1.80
2023-02-20T04:19:12.079Z,1.77
2023-02-20T04:24:31.579Z,1.83
2023-02-20T04:29:33.396Z,1.89
2023-02-20T04:34:35.190Z,1.87
2023-02-20T04:39:37.240Z,1.81
2023-02-20T04:44:40.070Z,1.74
2023-02-20T04:49:41.644Z,1.64
2023-02-20T04:54:43.161Z,1.56
2023-02-20T04:59:44.909Z,1.48
2023-02-20T05:04:46.418Z,1.42
2023-02-20T05:09:47.926Z,1.38
2023-02-20T05:14:49.410Z,1.39
2023-02-20T05:19:50.952Z,1.42
2023-02-20T05:24:52.597Z,1.46
2023-02-20T05:29:56.789Z,1.61
2023-02-20T05:34:58.851Z,1.80
2023-02-20T05:40:00.354Z,1.88
2023-02-20T05:45:02.285Z,1.96
2023-02-20T05:50:04.436Z,2.02
2023-02-20T05:55:06.319Z,2.05
2023-02-20T06:00:08.626Z,2.10
2023-02-20T06:05:10.201Z,2.13
2023-02-20T06:10:11.973Z,2.15
2023-02-20T06:15:13.547Z,2.17
2023-02-20T06:20:15.508Z,2.30
2023-02-20T06:25:17.175Z,2.40
2023-02-20T06:30:18.836Z,2.45
2023-02-20T06:35:20.481Z,2.46
2023-02-20T06:40:22.276Z,2.48
2023-02-20T06:45:23.772Z,2.49
2023-02-20T06:50:25.435Z,2.50
2023-02-20T06:55:27.256Z,2.54
2023-02-20T07:00:28.953Z,2.65
2023-02-20T07:05:30.617Z,2.82
2023-02-20T07:10:32.106Z,2.96
2023-02-20T07:15:33.647Z,3.01
2023-02-20T07:20:35.202Z,3.10
2023-02-20T07:25:37.089Z,3.21
2023-02-20T07:30:39.077Z,3.34
2023-02-20T07:35:40.997Z,3.36
2023-02-20T07:40:42.540Z,3.37
2023-02-20T07:45:44.452Z,3.42
2023-02-20T07:50:46.016Z,3.45
2023-02-20T07:55:47.675Z,3.53
2023-02-20T08:00:51.682Z,3.62
2023-02-20T08:05:53.222Z,3.66
2023-02-20T08:11:03.545Z,3.86
2023-02-20T08:16:09.792Z,4.15
2023-02-20T08:21:11.443Z,4.21
2023-02-20T08:26:14.025Z,4.24
2023-02-20T08:31:30.837Z,4.37
2023-02-20T08:36:33.167Z,4.52
2023-02-20T08:41:34.641Z,4.65
2023-02-20T08:46:36.173Z,4.72
2023-02-20T08:51:37.769Z,4.72
2023-02-20T08:56:39.302Z,4.65
2023-02-20T09:01:42.845Z,4.45
2023-02-20T09:06:44.376Z,4.28
2023-02-20T09:11:45.880Z,4.28
2023-02-20T09:16:52.243Z,4.16
2023-02-20T09:21:53.767Z,3.96
2023-02-20T09:26:56.954Z,3.81
2023-02-20T09:31:59.514Z,3.70
2023-02-20T09:37:01.228Z,3.75
2023-02-20T09:42:21.117Z,3.75
2023-02-20T09:47:27.807Z,3.64
2023-02-20T09:52:31.674Z,3.53
2023-02-20T09:57:38.016Z,3.51
2023-02-20T10:02:45.029Z,3.52
2023-02-20T10:07:49.004Z,3.49
2023-02-20T10:12:56.504Z,3.39
2023-02-20T10:18:37.218Z,3.43
2023-02-20T10:23:45.627Z,3.38
2023-02-20T10:28:51.325Z,3.28
2023-02-20T10:33:59.943Z,3.24
2023-02-20T10:39:19.962Z,3.21
2023-02-20T10:44:32.170Z,3.07
2023-02-20T10:49:42.035Z,3.01
2023-02-20T10:54:50.381Z,2.96
2023-02-20T10:59:52.617Z,2.92
2023-02-20T11:05:03.661Z,3.01
2023-02-20T11:10:06.839Z,3.07
2023-02-20T11:15:13.698Z,3.03
2023-02-20T11:20:38.601Z,3.02
2023-02-20T11:25:42.215Z,3.08
2023-02-20T11:30:46.870Z,3.06
2023-02-20T11:35:53.002Z,2.98
2023-02-20T11:40:57.005Z,3.02
2023-02-20T11:46:09.062Z,2.97
2023-02-20T11:51:33.431Z,2.94
2023-02-20T11:56:35.408Z,2.97
2023-02-20T12:01:38.486Z,3.04
2023-02-20T12:06:42.985Z,3.24
2023-02-20T12:11:45.291Z,3.33
2023-02-20T12:16:49.651Z,3.39
2023-02-20T12:21:51.386Z,3.55
2023-02-20T12:27:00.093Z,3.64
2023-02-20T12:32:35.911Z,3.66
2023-02-20T12:37:46.154Z,3.92
2023-02-20T12:43:23.018Z,4.13
2023-02-20T12:48:34.466Z,4.37
2023-02-20T12:53:57.322Z,4.53
2023-02-20T12:59:18.336Z,4.66
2023-02-20T13:04:33.274Z,4.82
2023-02-20T13:09:44.557Z,4.89
2023-02-20T13:14:50.043Z,4.94
2023-02-20T13:20:04.709Z,5.15
2023-02-20T13:25:42.786Z,5.29
2023-02-20T13:30:44.290Z,5.24
2023-02-20T13:35:57.578Z,5.30
2023-02-20T13:41:08.476Z,5.34
2023-02-20T13:46:20.423Z,5.36
2023-02-20T13:51:22.371Z,5.43
2023-02-20T13:56:42.055Z,5.52
2023-02-20T14:02:17.323Z,5.56
2023-02-20T14:07:29.433Z,5.61
2023-02-20T14:12:32.874Z,5.73
2023-02-20T14:17:39.563Z,5.77
2023-02-20T14:22:41.265Z,5.80
2023-02-20T14:27:43.495Z,5.87
2023-02-20T14:32:53.804Z,5.95
2023-02-20T14:38:01.203Z,5.96
2023-02-20T14:43:08.334Z,5.98
2023-02-20T14:48:24.489Z,6.08
2023-02-20T14:53:25.985Z,6.15
2023-02-20T14:58:28.350Z,6.17
2023-02-20T15:03:31.922Z,6.21
2023-02-20T15:08:36.310Z,6.33
2023-02-20T15:13:44.476Z,6.33
2023-02-20T15:18:49.679Z,6.34
2023-02-20T15:23:51.544Z,6.36
2023-02-20T15:29:18.478Z,6.45
2023-02-20T15:34:24.239Z,6.51
2023-02-20T15:39:26.530Z,6.51
2023-02-20T15:44:28.053Z,6.52
2023-02-20T15:49:29.558Z,6.64
2023-02-20T15:54:31.073Z,6.69
2023-02-20T15:59:32.570Z,6.73
2023-02-20T16:04:34.151Z,6.74
2023-02-20T16:09:35.736Z,6.87
2023-02-20T16:14:37.292Z,6.99
2023-02-20T16:19:42.851Z,7.05
2023-02-20T16:24:45.337Z,7.09
2023-02-20T16:29:46.944Z,7.19
2023-02-20T16:34:49.532Z,7.33
2023-02-20T16:39:51.656Z,7.40
2023-02-20T16:44:55.412Z,7.45
2023-02-20T16:50:01.305Z,7.49
2023-02-20T16:55:05.209Z,7.60
2023-02-20T17:00:07.818Z,7.69
2023-02-20T17:05:09.830Z,7.71
2023-02-20T17:10:11.898Z,7.71
2023-02-20T17:15:16.040Z,7.71
2023-02-20T17:20:24.538Z,7.66
2023-02-20T17:25:26.838Z,7.57
2023-02-20T17:30:28.421Z,7.53
2023-02-20T17:35:30.077Z,7.58
2023-02-20T17:40:31.640Z,7.53
2023-02-20T17:45:33.230Z,7.49
2023-02-20T17:50:35.581Z,7.54
2023-02-20T17:55:37.237Z,7.58
2023-02-20T18:00:38.830Z,7.58
2023-02-20T18:05:40.528Z,7.65
2023-02-20T18:10:42.053Z,7.71
2023-02-20T18:15:43.603Z,7.71
2023-02-20T18:20:45.348Z,7.69
2023-02-20T18:25:46.937Z,7.74
2023-02-20T18:30:48.494Z,7.79
2023-02-20T18:36:07.131Z,7.79
2023-02-20T18:41:12.104Z,7.83
2023-02-20T18:46:26.625Z,7.87
2023-02-20T18:51:30.974Z,7.85
2023-02-20T18:56:32.919Z,7.86
2023-02-20T19:01:34.695Z,7.88
2023-02-20T19:06:40.525Z,7.80
2023-02-20T19:11:42.478Z,7.78
2023-02-20T19:16:51.497Z,7.81
2023-02-20T19:21:54.487Z,7.78
2023-02-20T19:26:57.837Z,7.78
2023-02-20T19:32:00.364Z,7.85
2023-02-20T19:37:03.132Z,7.83
2023-02-20T19:42:07.101Z,7.81
2023-02-20T19:47:09.347Z,7.83
2023-02-20T19:52:10.841Z,7.80
2023-02-20T19:57:14.358Z,7.80
2023-02-20T20:02:16.132Z,7.87
2023-02-20T20:07:17.717Z,7.87
2023-02-20T20:12:37.934Z,7.82
2023-02-20T20:17:39.498Z,7.89
2023-02-20T20:22:41.737Z,7.83
2023-02-20T20:27:43.320Z,7.77
2023-02-20T20:32:46.778Z,7.81
2023-02-20T20:37:48.446Z,7.79
2023-02-20T20:42:52.617Z,7.74
2023-02-20T20:47:54.692Z,7.76
2023-02-20T20:53:00.672Z,7.75
2023-02-20T20:58:02.444Z,7.78
2023-02-20T21:03:11.658Z,7.83
2023-02-20T21:08:13.340Z,7.86
2023-02-20T21:13:15.192Z,7.97
2023-02-20T21:18:16.888Z,7.95
2023-02-20T21:23:18.489Z,7.90
2023-02-20T21:28:20.112Z,7.88
2023-02-20T21:33:21.713Z,7.81
2023-02-20T21:38:23.242Z,7.83
2023-02-20T21:43:43.448Z,7.78
2023-02-20T21:48:45.387Z,7.80
2023-02-20T21:53:46.957Z,7.80
2023-02-20T21:59:06.166Z,7.70
2023-02-20T22:04:11.690Z,7.59
2023-02-20T22:09:33.938Z,7.48
2023-02-20T22:14:54.457Z,7.48
2023-02-20T22:20:15.599Z,7.51
2023-02-20T22:25:36.302Z,7.52
2023-02-20T22:30:56.354Z,7.57
2023-02-20T22:36:18.313Z,7.60
2023-02-20T22:41:39.823Z,7.57
2023-02-20T22:46:59.866Z,7.57
2023-02-20T22:52:19.930Z,7.51
2023-02-20T22:57:40.136Z,7.47
2023-02-20T23:03:00.126Z,7.40
2023-02-20T23:08:20.570Z,7.36
2023-02-20T23:13:41.102Z,7.38
2023-02-20T23:19:01.138Z,7.36
2023-02-20T23:24:22.063Z,7.43
2023-02-20T23:29:42.558Z,7.44
2023-02-20T23:35:02.605Z,7.48
2023-02-20T23:40:30.831Z,7.52
2023-02-20T23:45:54.720Z,7.49
2023-02-20T23:51:15.413Z,7.55
2023-02-20T23:56:35.489Z,7.54
